sensor_id;sensor_type;location;lat;lon;timestamp;P1;durP1;ratioP1;P2;durP2;ratioP2
18391;SDS011;9322;50.932;5.318;2022-09-09T00:00:47;2.80;;;0.93;;
18391;SDS011;9322;50.932;5.318;2022-09-09T00:03:27;3.67;;;1.10;;
18391;SDS011;9322;50.932;5.318;2022-09-09T00:06:03;3.10;;;1.00;;
18391;SDS011;9322;50.932;5.318;2022-09-09T00:17:30;2.77;;;1.20;;
18391;SDS011;9322;50.932;5.318;2022-09-09T00:20:18;5.90;;;1.20;;
18391;SDS011;9322;50.932;5.318;2022-09-09T00:25:51;5.73;;;1.13;;
18391;SDS011;9322;50.932;5.318;2022-09-09T00:29:00;6.33;;;1.20;;
18391;SDS011;9322;50.932;5.318;2022-09-09T00:31:29;3.00;;;1.10;;
18391;SDS011;9322;50.932;5.318;2022-09-09T00:34:13;5.07;;;1.10;;
18391;SDS011;9322;50.932;5.318;2022-09-09T00:36:42;4.77;;;1.10;;
18391;SDS011;9322;50.932;5.318;2022-09-09T00:39:21;2.90;;;1.10;;
18391;SDS011;9322;50.932;5.318;2022-09-09T00:45:12;4.70;;;1.30;;
18391;SDS011;9322;50.932;5.318;2022-09-09T00:47:57;5.27;;;1.10;;
18391;SDS011;9322;50.932;5.318;2022-09-09T00:53:54;11.03;;;1.40;;
18391;SDS011;9322;50.932;5.318;2022-09-09T00:56:36;7.17;;;1.47;;
18391;SDS011;9322;50.932;5.318;2022-09-09T01:01:35;7.30;;;1.80;;
18391;SDS011;9322;50.932;5.318;2022-09-09T01:04:01;10.30;;;1.50;;
18391;SDS011;9322;50.932;5.318;2022-09-09T01:06:36;5.73;;;1.60;;
18391;SDS011;9322;50.932;5.318;2022-09-09T01:11:55;3.63;;;1.73;;
18391;SDS011;9322;50.932;5.318;2022-09-09T01:22:16;9.27;;;1.83;;
18391;SDS011;9322;50.932;5.318;2022-09-09T01:27:48;8.87;;;2.00;;
18391;SDS011;9322;50.932;5.318;2022-09-09T01:30:16;7.50;;;2.07;;
18391;SDS011;9322;50.932;5.318;2022-09-09T01:32:48;8.97;;;1.97;;
18391;SDS011;9322;50.932;5.318;2022-09-09T01:35:19;8.23;;;2.13;;
18391;SDS011;9322;50.932;5.318;2022-09-09T01:38:06;5.10;;;1.87;;
18391;SDS011;9322;50.932;5.318;2022-09-09T01:40:32;11.80;;;2.30;;
18391;SDS011;9322;50.932;5.318;2022-09-09T01:42:58;10.63;;;2.10;;
18391;SDS011;9322;50.932;5.318;2022-09-09T01:45:24;5.97;;;2.33;;
18391;SDS011;9322;50.932;5.318;2022-09-09T01:47:51;7.83;;;1.90;;
18391;SDS011;9322;50.932;5.318;2022-09-09T01:50:18;5.83;;;1.80;;
18391;SDS011;9322;50.932;5.318;2022-09-09T01:52:45;8.90;;;2.40;;
18391;SDS011;9322;50.932;5.318;2022-09-09T01:55:14;7.17;;;2.40;;
18391;SDS011;9322;50.932;5.318;2022-09-09T02:00:24;12.23;;;1.93;;
18391;SDS011;9322;50.932;5.318;2022-09-09T02:08:17;8.33;;;2.00;;
18391;SDS011;9322;50.932;5.318;2022-09-09T02:13:23;11.00;;;2.13;;
18391;SDS011;9322;50.932;5.318;2022-09-09T02:15:56;6.70;;;1.90;;
18391;SDS011;9322;50.932;5.318;2022-09-09T02:18:44;7.07;;;1.93;;
18391;SDS011;9322;50.932;5.318;2022-09-09T02:21:16;9.07;;;2.07;;
18391;SDS011;9322;50.932;5.318;2022-09-09T02:23:42;6.90;;;1.90;;
18391;SDS011;9322;50.932;5.318;2022-09-09T02:26:12;6.87;;;2.03;;
18391;SDS011;9322;50.932;5.318;2022-09-09T02:28:44;10.33;;;2.27;;
18391;SDS011;9322;50.932;5.318;2022-09-09T02:31:12;7.60;;;1.93;;
18391;SDS011;9322;50.932;5.318;2022-09-09T02:33:41;10.27;;;1.87;;
18391;SDS011;9322;50.932;5.318;2022-09-09T02:36:11;7.87;;;1.97;;
18391;SDS011;9322;50.932;5.318;2022-09-09T02:38:42;13.67;;;2.57;;
18391;SDS011;9322;50.932;5.318;2022-09-09T02:41:15;14.33;;;2.63;;
18391;SDS011;9322;50.932;5.318;2022-09-09T02:44:00;11.43;;;1.90;;
18391;SDS011;9322;50.932;5.318;2022-09-09T02:49:03;8.07;;;2.20;;
18391;SDS011;9322;50.932;5.318;2022-09-09T02:54:31;8.20;;;1.97;;
18391;SDS011;9322;50.932;5.318;2022-09-09T02:57:43;9.27;;;2.13;;
18391;SDS011;9322;50.932;5.318;2022-09-09T02:59:57;11.63;;;1.90;;
18391;SDS011;9322;50.932;5.318;2022-09-09T03:02:23;8.03;;;1.83;;
18391;SDS011;9322;50.932;5.318;2022-09-09T03:04:50;10.23;;;2.17;;
18391;SDS011;9322;50.932;5.318;2022-09-09T03:07:17;8.57;;;1.83;;
18391;SDS011;9322;50.932;5.318;2022-09-09T03:09:43;4.70;;;1.77;;
18391;SDS011;9322;50.932;5.318;2022-09-09T03:12:10;9.40;;;1.50;;
18391;SDS011;9322;50.932;5.318;2022-09-09T03:14:36;4.83;;;1.37;;
18391;SDS011;9322;50.932;5.318;2022-09-09T03:17:03;6.57;;;1.70;;
18391;SDS011;9322;50.932;5.318;2022-09-09T03:19:29;10.37;;;1.90;;
18391;SDS011;9322;50.932;5.318;2022-09-09T03:21:55;6.93;;;1.80;;
18391;SDS011;9322;50.932;5.318;2022-09-09T03:24:21;10.00;;;1.77;;
18391;SDS011;9322;50.932;5.318;2022-09-09T03:26:47;9.03;;;1.43;;
18391;SDS011;9322;50.932;5.318;2022-09-09T03:29:13;9.43;;;1.43;;
18391;SDS011;9322;50.932;5.318;2022-09-09T03:31:39;8.53;;;1.37;;
18391;SDS011;9322;50.932;5.318;2022-09-09T03:34:05;6.33;;;1.57;;
18391;SDS011;9322;50.932;5.318;2022-09-09T03:36:31;11.43;;;1.93;;
18391;SDS011;9322;50.932;5.318;2022-09-09T03:38:57;8.17;;;1.47;;
18391;SDS011;9322;50.932;5.318;2022-09-09T03:41:24;8.10;;;1.80;;
18391;SDS011;9322;50.932;5.318;2022-09-09T03:43:50;13.00;;;1.80;;
18391;SDS011;9322;50.932;5.318;2022-09-09T03:46:17;7.60;;;1.57;;
18391;SDS011;9322;50.932;5.318;2022-09-09T03:48:46;9.47;;;1.80;;
18391;SDS011;9322;50.932;5.318;2022-09-09T03:51:12;9.10;;;1.67;;
18391;SDS011;9322;50.932;5.318;2022-09-09T03:53:37;10.23;;;1.57;;
18391;SDS011;9322;50.932;5.318;2022-09-09T03:56:03;6.57;;;1.10;;
18391;SDS011;9322;50.932;5.318;2022-09-09T03:58:31;6.20;;;1.60;;
18391;SDS011;9322;50.932;5.318;2022-09-09T04:00:59;8.63;;;1.57;;
18391;SDS011;9322;50.932;5.318;2022-09-09T04:03:27;12.97;;;1.60;;
18391;SDS011;9322;50.932;5.318;2022-09-09T04:05:54;5.80;;;1.70;;
18391;SDS011;9322;50.932;5.318;2022-09-09T04:08:21;9.00;;;1.50;;
18391;SDS011;9322;50.932;5.318;2022-09-09T04:10:47;9.03;;;1.77;;
18391;SDS011;9322;50.932;5.318;2022-09-09T04:13:15;7.73;;;1.47;;
18391;SDS011;9322;50.932;5.318;2022-09-09T04:15:42;6.53;;;1.30;;
18391;SDS011;9322;50.932;5.318;2022-09-09T04:18:09;10.30;;;1.60;;
18391;SDS011;9322;50.932;5.318;2022-09-09T04:20:34;8.87;;;1.60;;
18391;SDS011;9322;50.932;5.318;2022-09-09T04:23:00;10.47;;;1.53;;
18391;SDS011;9322;50.932;5.318;2022-09-09T04:25:26;6.40;;;1.70;;
18391;SDS011;9322;50.932;5.318;2022-09-09T04:27:55;7.30;;;1.60;;
18391;SDS011;9322;50.932;5.318;2022-09-09T04:30:22;10.03;;;1.53;;
18391;SDS011;9322;50.932;5.318;2022-09-09T04:32:48;10.27;;;1.70;;
18391;SDS011;9322;50.932;5.318;2022-09-09T04:35:14;8.13;;;1.67;;
18391;SDS011;9322;50.932;5.318;2022-09-09T04:37:39;5.77;;;1.50;;
18391;SDS011;9322;50.932;5.318;2022-09-09T04:40:06;10.23;;;2.00;;
18391;SDS011;9322;50.932;5.318;2022-09-09T04:42:38;5.63;;;1.70;;
18391;SDS011;9322;50.932;5.318;2022-09-09T04:45:04;10.07;;;1.80;;
18391;SDS011;9322;50.932;5.318;2022-09-09T04:47:31;8.20;;;1.60;;
18391;SDS011;9322;50.932;5.318;2022-09-09T04:49:57;8.37;;;1.87;;
18391;SDS011;9322;50.932;5.318;2022-09-09T04:52:23;5.47;;;1.83;;
18391;SDS011;9322;50.932;5.318;2022-09-09T04:54:49;13.40;;;1.77;;
18391;SDS011;9322;50.932;5.318;2022-09-09T04:57:14;8.40;;;1.70;;
18391;SDS011;9322;50.932;5.318;2022-09-09T04:59:40;15.10;;;2.47;;
18391;SDS011;9322;50.932;5.318;2022-09-09T05:02:05;13.90;;;2.13;;
18391;SDS011;9322;50.932;5.318;2022-09-09T05:04:31;7.43;;;1.63;;
18391;SDS011;9322;50.932;5.318;2022-09-09T05:06:58;10.80;;;1.87;;
18391;SDS011;9322;50.932;5.318;2022-09-09T05:09:24;11.00;;;2.10;;
18391;SDS011;9322;50.932;5.318;2022-09-09T05:11:49;14.33;;;2.43;;
18391;SDS011;9322;50.932;5.318;2022-09-09T05:14:16;9.40;;;1.90;;
18391;SDS011;9322;50.932;5.318;2022-09-09T05:16:42;11.30;;;2.83;;
18391;SDS011;9322;50.932;5.318;2022-09-09T05:19:10;18.00;;;2.13;;
18391;SDS011;9322;50.932;5.318;2022-09-09T05:21:36;14.87;;;2.00;;
18391;SDS011;9322;50.932;5.318;2022-09-09T05:24:02;10.23;;;2.40;;
18391;SDS011;9322;50.932;5.318;2022-09-09T05:26:28;10.93;;;2.00;;
18391;SDS011;9322;50.932;5.318;2022-09-09T05:28:54;7.67;;;1.73;;
18391;SDS011;9322;50.932;5.318;2022-09-09T05:31:20;14.13;;;2.50;;
18391;SDS011;9322;50.932;5.318;2022-09-09T05:33:46;9.83;;;1.80;;
18391;SDS011;9322;50.932;5.318;2022-09-09T05:36:18;12.60;;;2.27;;
18391;SDS011;9322;50.932;5.318;2022-09-09T05:38:45;14.20;;;2.10;;
18391;SDS011;9322;50.932;5.318;2022-09-09T05:41:12;12.70;;;1.93;;
18391;SDS011;9322;50.932;5.318;2022-09-09T05:43:40;9.27;;;1.90;;
18391;SDS011;9322;50.932;5.318;2022-09-09T05:46:09;12.33;;;1.80;;
18391;SDS011;9322;50.932;5.318;2022-09-09T05:48:38;9.57;;;1.93;;
18391;SDS011;9322;50.932;5.318;2022-09-09T05:51:05;22.30;;;2.40;;
18391;SDS011;9322;50.932;5.318;2022-09-09T05:53:35;37.97;;;4.50;;
18391;SDS011;9322;50.932;5.318;2022-09-09T05:56:08;18.33;;;2.73;;
18391;SDS011;9322;50.932;5.318;2022-09-09T05:58:39;14.80;;;3.10;;
18391;SDS011;9322;50.932;5.318;2022-09-09T06:01:12;13.50;;;2.20;;
18391;SDS011;9322;50.932;5.318;2022-09-09T06:03:41;18.07;;;2.50;;
18391;SDS011;9322;50.932;5.318;2022-09-09T06:06:08;21.03;;;2.70;;
18391;SDS011;9322;50.932;5.318;2022-09-09T06:08:40;39.70;;;3.47;;
18391;SDS011;9322;50.932;5.318;2022-09-09T06:11:16;25.30;;;3.47;;
18391;SDS011;9322;50.932;5.318;2022-09-09T06:13:47;24.90;;;3.20;;
18391;SDS011;9322;50.932;5.318;2022-09-09T06:16:14;33.70;;;3.60;;
18391;SDS011;9322;50.932;5.318;2022-09-09T06:18:41;36.50;;;3.40;;
18391;SDS011;9322;50.932;5.318;2022-09-09T06:21:09;13.03;;;2.03;;
18391;SDS011;9322;50.932;5.318;2022-09-09T06:23:41;44.50;;;3.63;;
18391;SDS011;9322;50.932;5.318;2022-09-09T06:26:08;18.93;;;2.20;;
18391;SDS011;9322;50.932;5.318;2022-09-09T06:28:38;22.37;;;2.40;;
18391;SDS011;9322;50.932;5.318;2022-09-09T06:31:04;41.33;;;4.30;;
18391;SDS011;9322;50.932;5.318;2022-09-09T06:33:32;38.93;;;3.53;;
18391;SDS011;9322;50.932;5.318;2022-09-09T06:36:04;9.05;;;2.08;;
18391;SDS011;9322;50.932;5.318;2022-09-09T06:38:30;29.10;;;3.10;;
18391;SDS011;9322;50.932;5.318;2022-09-09T06:40:57;27.23;;;3.35;;
18391;SDS011;9322;50.932;5.318;2022-09-09T06:43:24;12.95;;;1.83;;
18391;SDS011;9322;50.932;5.318;2022-09-09T06:46:01;10.95;;;1.70;;
18391;SDS011;9322;50.932;5.318;2022-09-09T06:48:33;5.97;;;1.02;;
18391;SDS011;9322;50.932;5.318;2022-09-09T06:53:36;14.10;;;2.10;;
18391;SDS011;9322;50.932;5.318;2022-09-09T06:58:37;10.68;;;2.15;;
18391;SDS011;9322;50.932;5.318;2022-09-09T07:01:09;7.47;;;1.77;;
18391;SDS011;9322;50.932;5.318;2022-09-09T07:03:39;11.15;;;1.65;;
18391;SDS011;9322;50.932;5.318;2022-09-09T07:06:05;12.52;;;1.90;;
18391;SDS011;9322;50.932;5.318;2022-09-09T07:08:33;12.85;;;1.63;;
18391;SDS011;9322;50.932;5.318;2022-09-09T07:11:02;9.10;;;1.80;;
18391;SDS011;9322;50.932;5.318;2022-09-09T07:13:30;8.57;;;1.45;;
18391;SDS011;9322;50.932;5.318;2022-09-09T07:16:02;13.30;;;1.90;;
18391;SDS011;9322;50.932;5.318;2022-09-09T07:18:32;18.35;;;2.30;;
18391;SDS011;9322;50.932;5.318;2022-09-09T07:20:59;33.15;;;3.10;;
18391;SDS011;9322;50.932;5.318;2022-09-09T07:23:27;17.65;;;2.25;;
18391;SDS011;9322;50.932;5.318;2022-09-09T07:25:53;19.35;;;2.97;;
18391;SDS011;9322;50.932;5.318;2022-09-09T07:28:19;10.20;;;1.95;;
18391;SDS011;9322;50.932;5.318;2022-09-09T07:30:55;6.32;;;1.80;;
18391;SDS011;9322;50.932;5.318;2022-09-09T07:33:22;14.05;;;2.10;;
18391;SDS011;9322;50.932;5.318;2022-09-09T07:35:49;15.85;;;1.83;;
18391;SDS011;9322;50.932;5.318;2022-09-09T07:38:15;14.50;;;2.10;;
18391;SDS011;9322;50.932;5.318;2022-09-09T07:40:40;6.78;;;1.33;;
18391;SDS011;9322;50.932;5.318;2022-09-09T07:43:06;7.95;;;1.30;;
18391;SDS011;9322;50.932;5.318;2022-09-09T07:45:33;7.65;;;1.48;;
18391;SDS011;9322;50.932;5.318;2022-09-09T07:47:59;9.95;;;1.60;;
18391;SDS011;9322;50.932;5.318;2022-09-09T07:50:26;14.48;;;1.67;;
18391;SDS011;9322;50.932;5.318;2022-09-09T07:52:52;9.77;;;1.38;;
18391;SDS011;9322;50.932;5.318;2022-09-09T07:55:19;8.20;;;1.52;;
18391;SDS011;9322;50.932;5.318;2022-09-09T07:57:52;16.65;;;2.00;;
18391;SDS011;9322;50.932;5.318;2022-09-09T08:00:18;9.60;;;1.60;;
18391;SDS011;9322;50.932;5.318;2022-09-09T08:02:45;13.93;;;2.08;;
18391;SDS011;9322;50.932;5.318;2022-09-09T08:05:11;31.05;;;2.90;;
18391;SDS011;9322;50.932;5.318;2022-09-09T08:07:38;19.47;;;2.27;;
18391;SDS011;9322;50.932;5.318;2022-09-09T08:10:04;11.10;;;1.65;;
18391;SDS011;9322;50.932;5.318;2022-09-09T08:12:31;10.00;;;1.63;;
18391;SDS011;9322;50.932;5.318;2022-09-09T08:14:57;12.43;;;1.87;;
18391;SDS011;9322;50.932;5.318;2022-09-09T08:17:23;12.73;;;2.07;;
18391;SDS011;9322;50.932;5.318;2022-09-09T08:19:49;8.57;;;1.60;;
18391;SDS011;9322;50.932;5.318;2022-09-09T08:22:14;9.77;;;1.37;;
18391;SDS011;9322;50.932;5.318;2022-09-09T08:24:40;14.77;;;1.77;;
18391;SDS011;9322;50.932;5.318;2022-09-09T08:27:06;9.90;;;1.50;;
18391;SDS011;9322;50.932;5.318;2022-09-09T08:29:31;9.33;;;1.20;;
18391;SDS011;9322;50.932;5.318;2022-09-09T08:31:57;8.90;;;1.33;;
18391;SDS011;9322;50.932;5.318;2022-09-09T08:34:25;7.23;;;1.53;;
18391;SDS011;9322;50.932;5.318;2022-09-09T08:36:52;14.53;;;1.77;;
18391;SDS011;9322;50.932;5.318;2022-09-09T08:39:19;12.67;;;1.90;;
18391;SDS011;9322;50.932;5.318;2022-09-09T08:57:58;15.70;;;2.03;;
18391;SDS011;9322;50.932;5.318;2022-09-09T09:00:40;16.20;;;1.90;;
18391;SDS011;9322;50.932;5.318;2022-09-09T09:06:09;17.20;;;2.43;;
18391;SDS011;9322;50.932;5.318;2022-09-09T09:09:08;16.60;;;1.80;;
18391;SDS011;9322;50.932;5.318;2022-09-09T09:11:44;11.37;;;1.73;;
18391;SDS011;9322;50.932;5.318;2022-09-09T09:14:26;17.87;;;2.13;;
18391;SDS011;9322;50.932;5.318;2022-09-09T09:16:59;11.47;;;1.90;;
18391;SDS011;9322;50.932;5.318;2022-09-09T09:19:27;7.20;;;1.70;;
18391;SDS011;9322;50.932;5.318;2022-09-09T09:24:33;9.00;;;1.40;;
18391;SDS011;9322;50.932;5.318;2022-09-09T09:27:00;14.23;;;1.80;;
18391;SDS011;9322;50.932;5.318;2022-09-09T09:29:37;6.73;;;1.20;;
18391;SDS011;9322;50.932;5.318;2022-09-09T09:32:05;11.70;;;1.80;;
18391;SDS011;9322;50.932;5.318;2022-09-09T09:34:35;8.17;;;1.40;;
18391;SDS011;9322;50.932;5.318;2022-09-09T09:37:00;6.80;;;1.35;;
18391;SDS011;9322;50.932;5.318;2022-09-09T09:39:28;5.45;;;1.00;;
18391;SDS011;9322;50.932;5.318;2022-09-09T09:41:55;22.50;;;2.15;;
18391;SDS011;9322;50.932;5.318;2022-09-09T09:44:30;11.38;;;1.48;;
18391;SDS011;9322;50.932;5.318;2022-09-09T09:49:38;9.63;;;1.58;;
18391;SDS011;9322;50.932;5.318;2022-09-09T09:52:05;15.95;;;1.90;;
18391;SDS011;9322;50.932;5.318;2022-09-09T09:54:33;7.38;;;1.20;;
18391;SDS011;9322;50.932;5.318;2022-09-09T09:57:08;4.50;;;1.05;;
18391;SDS011;9322;50.932;5.318;2022-09-09T09:59:39;4.72;;;1.10;;
18391;SDS011;9322;50.932;5.318;2022-09-09T10:08:03;11.17;;;1.80;;
18391;SDS011;9322;50.932;5.318;2022-09-09T10:13:46;6.63;;;1.80;;
18391;SDS011;9322;50.932;5.318;2022-09-09T10:19:02;10.77;;;1.53;;
18391;SDS011;9322;50.932;5.318;2022-09-09T10:21:40;9.13;;;1.77;;
18391;SDS011;9322;50.932;5.318;2022-09-09T10:35:29;10.00;;;1.90;;
18391;SDS011;9322;50.932;5.318;2022-09-09T10:54:19;7.53;;;1.93;;
18391;SDS011;9322;50.932;5.318;2022-09-09T10:57:08;16.37;;;2.43;;
18391;SDS011;9322;50.932;5.318;2022-09-09T11:00:02;9.67;;;2.33;;
18391;SDS011;9322;50.932;5.318;2022-09-09T11:02:32;11.30;;;2.37;;
18391;SDS011;9322;50.932;5.318;2022-09-09T11:07:39;10.32;;;2.30;;
18391;SDS011;9322;50.932;5.318;2022-09-09T11:13:06;11.88;;;2.40;;
18391;SDS011;9322;50.932;5.318;2022-09-09T11:16:01;6.07;;;1.80;;
18391;SDS011;9322;50.932;5.318;2022-09-09T11:18:35;7.60;;;1.80;;
18391;SDS011;9322;50.932;5.318;2022-09-09T11:21:05;9.80;;;2.40;;
18391;SDS011;9322;50.932;5.318;2022-09-09T11:23:46;7.95;;;1.77;;
18391;SDS011;9322;50.932;5.318;2022-09-09T11:26:32;7.68;;;1.98;;
18391;SDS011;9322;50.932;5.318;2022-09-09T11:37:08;7.97;;;1.50;;
18391;SDS011;9322;50.932;5.318;2022-09-09T11:42:35;8.63;;;1.88;;
18391;SDS011;9322;50.932;5.318;2022-09-09T11:45:11;11.80;;;1.58;;
18391;SDS011;9322;50.932;5.318;2022-09-09T11:48:32;19.00;;;2.30;;
18391;SDS011;9322;50.932;5.318;2022-09-09T11:51:00;8.50;;;1.60;;
18391;SDS011;9322;50.932;5.318;2022-09-09T11:53:28;6.72;;;1.40;;
18391;SDS011;9322;50.932;5.318;2022-09-09T11:56:03;7.00;;;1.85;;
18391;SDS011;9322;50.932;5.318;2022-09-09T11:58:42;8.82;;;1.60;;
18391;SDS011;9322;50.932;5.318;2022-09-09T12:01:26;8.00;;;1.73;;
18391;SDS011;9322;50.932;5.318;2022-09-09T12:06:48;9.10;;;1.70;;
18391;SDS011;9322;50.932;5.318;2022-09-09T12:09:25;11.95;;;1.90;;
18391;SDS011;9322;50.932;5.318;2022-09-09T12:13:07;9.63;;;1.90;;
18391;SDS011;9322;50.932;5.318;2022-09-09T12:14:56;5.15;;;1.75;;
18391;SDS011;9322;50.932;5.318;2022-09-09T12:17:25;10.73;;;1.60;;
18391;SDS011;9322;50.932;5.318;2022-09-09T12:22:48;10.48;;;1.85;;
18391;SDS011;9322;50.932;5.318;2022-09-09T12:25:30;6.50;;;1.80;;
18391;SDS011;9322;50.932;5.318;2022-09-09T12:28:17;10.90;;;1.47;;
18391;SDS011;9322;50.932;5.318;2022-09-09T12:33:34;8.73;;;1.92;;
18391;SDS011;9322;50.932;5.318;2022-09-09T12:36:01;8.27;;;1.33;;
18391;SDS011;9322;50.932;5.318;2022-09-09T12:38:34;7.30;;;1.73;;
18391;SDS011;9322;50.932;5.318;2022-09-09T12:41:04;8.30;;;1.40;;
18391;SDS011;9322;50.932;5.318;2022-09-09T12:43:30;10.88;;;1.80;;
18391;SDS011;9322;50.932;5.318;2022-09-09T12:46:00;8.00;;;1.42;;
18391;SDS011;9322;50.932;5.318;2022-09-09T12:48:33;6.70;;;1.60;;
18391;SDS011;9322;50.932;5.318;2022-09-09T12:51:17;5.95;;;1.40;;
18391;SDS011;9322;50.932;5.318;2022-09-09T12:53:50;8.40;;;1.30;;
18391;SDS011;9322;50.932;5.318;2022-09-09T12:56:27;6.22;;;1.33;;
18391;SDS011;9322;50.932;5.318;2022-09-09T12:58:56;9.45;;;1.50;;
18391;SDS011;9322;50.932;5.318;2022-09-09T13:01:27;7.75;;;1.38;;
18391;SDS011;9322;50.932;5.318;2022-09-09T13:03:55;4.88;;;1.33;;
18391;SDS011;9322;50.932;5.318;2022-09-09T13:06:22;5.80;;;1.15;;
18391;SDS011;9322;50.932;5.318;2022-09-09T13:08:56;7.40;;;1.38;;
18391;SDS011;9322;50.932;5.318;2022-09-09T13:14:01;3.25;;;1.20;;
18391;SDS011;9322;50.932;5.318;2022-09-09T13:16:31;8.32;;;1.70;;
18391;SDS011;9322;50.932;5.318;2022-09-09T13:19:02;8.73;;;1.58;;
18391;SDS011;9322;50.932;5.318;2022-09-09T13:21:34;6.90;;;1.52;;
18391;SDS011;9322;50.932;5.318;2022-09-09T13:24:03;5.75;;;1.17;;
18391;SDS011;9322;50.932;5.318;2022-09-09T13:27:00;3.20;;;1.10;;
18391;SDS011;9322;50.932;5.318;2022-09-09T13:29:27;4.28;;;0.98;;
18391;SDS011;9322;50.932;5.318;2022-09-09T13:31:54;4.40;;;1.63;;
18391;SDS011;9322;50.932;5.318;2022-09-09T13:34:31;5.88;;;1.40;;
18391;SDS011;9322;50.932;5.318;2022-09-09T13:36:59;6.10;;;1.40;;
18391;SDS011;9322;50.932;5.318;2022-09-09T13:39:34;5.53;;;1.35;;
18391;SDS011;9322;50.932;5.318;2022-09-09T13:42:02;4.38;;;1.23;;
18391;SDS011;9322;50.932;5.318;2022-09-09T13:44:29;8.70;;;1.40;;
18391;SDS011;9322;50.932;5.318;2022-09-09T13:49:44;6.97;;;1.38;;
18391;SDS011;9322;50.932;5.318;2022-09-09T13:52:14;3.75;;;0.90;;
18391;SDS011;9322;50.932;5.318;2022-09-09T13:54:42;4.70;;;1.05;;
18391;SDS011;9322;50.932;5.318;2022-09-09T13:57:14;4.53;;;1.05;;
18391;SDS011;9322;50.932;5.318;2022-09-09T13:59:47;6.97;;;1.20;;
18391;SDS011;9322;50.932;5.318;2022-09-09T14:02:13;4.30;;;1.05;;
18391;SDS011;9322;50.932;5.318;2022-09-09T14:04:41;5.95;;;1.30;;
18391;SDS011;9322;50.932;5.318;2022-09-09T14:07:11;3.10;;;1.13;;
18391;SDS011;9322;50.932;5.318;2022-09-09T14:09:38;4.88;;;0.88;;
18391;SDS011;9322;50.932;5.318;2022-09-09T14:12:04;6.28;;;1.48;;
18391;SDS011;9322;50.932;5.318;2022-09-09T14:14:30;6.78;;;1.38;;
18391;SDS011;9322;50.932;5.318;2022-09-09T14:16:55;8.30;;;1.48;;
18391;SDS011;9322;50.932;5.318;2022-09-09T14:19:21;4.50;;;1.15;;
18391;SDS011;9322;50.932;5.318;2022-09-09T14:21:47;4.00;;;1.10;;
18391;SDS011;9322;50.932;5.318;2022-09-09T14:24:13;5.85;;;1.17;;
18391;SDS011;9322;50.932;5.318;2022-09-09T14:26:39;2.92;;;0.88;;
18391;SDS011;9322;50.932;5.318;2022-09-09T14:29:05;6.80;;;1.00;;
18391;SDS011;9322;50.932;5.318;2022-09-09T14:31:31;4.22;;;1.15;;
18391;SDS011;9322;50.932;5.318;2022-09-09T14:33:57;4.57;;;1.00;;
18391;SDS011;9322;50.932;5.318;2022-09-09T14:36:24;5.03;;;0.98;;
18391;SDS011;9322;50.932;5.318;2022-09-09T14:38:49;2.83;;;0.82;;
18391;SDS011;9322;50.932;5.318;2022-09-09T14:41:16;2.75;;;0.90;;
18391;SDS011;9322;50.932;5.318;2022-09-09T14:43:43;3.03;;;1.00;;
18391;SDS011;9322;50.932;5.318;2022-09-09T14:46:10;2.13;;;0.88;;
18391;SDS011;9322;50.932;5.318;2022-09-09T14:48:38;3.45;;;1.00;;
18391;SDS011;9322;50.932;5.318;2022-09-09T14:53:56;4.13;;;1.02;;
18391;SDS011;9322;50.932;5.318;2022-09-09T14:56:25;3.03;;;1.15;;
18391;SDS011;9322;50.932;5.318;2022-09-09T14:58:55;3.95;;;1.25;;
18391;SDS011;9322;50.932;5.318;2022-09-09T15:01:23;5.90;;;1.35;;
18391;SDS011;9322;50.932;5.318;2022-09-09T15:03:56;3.35;;;0.88;;
18391;SDS011;9322;50.932;5.318;2022-09-09T15:06:23;5.32;;;1.13;;
18391;SDS011;9322;50.932;5.318;2022-09-09T15:08:51;6.80;;;1.20;;
18391;SDS011;9322;50.932;5.318;2022-09-09T15:11:18;4.57;;;1.17;;
18391;SDS011;9322;50.932;5.318;2022-09-09T15:13:45;5.32;;;0.93;;
18391;SDS011;9322;50.932;5.318;2022-09-09T15:18:37;3.38;;;0.95;;
18391;SDS011;9322;50.932;5.318;2022-09-09T15:21:10;2.50;;;0.90;;
18391;SDS011;9322;50.932;5.318;2022-09-09T15:23:47;4.72;;;1.00;;
18391;SDS011;9322;50.932;5.318;2022-09-09T15:26:13;2.75;;;1.02;;
18391;SDS011;9322;50.932;5.318;2022-09-09T15:28:40;4.13;;;1.00;;
18391;SDS011;9322;50.932;5.318;2022-09-09T15:31:15;3.10;;;1.00;;
18391;SDS011;9322;50.932;5.318;2022-09-09T15:33:51;5.00;;;1.08;;
18391;SDS011;9322;50.932;5.318;2022-09-09T15:38:57;3.53;;;1.10;;
18391;SDS011;9322;50.932;5.318;2022-09-09T15:41:24;3.85;;;1.00;;
18391;SDS011;9322;50.932;5.318;2022-09-09T15:43:51;3.35;;;1.08;;
18391;SDS011;9322;50.932;5.318;2022-09-09T15:46:25;7.57;;;0.98;;
18391;SDS011;9322;50.932;5.318;2022-09-09T15:48:54;5.85;;;1.00;;
18391;SDS011;9322;50.932;5.318;2022-09-09T15:51:23;4.35;;;1.13;;
18391;SDS011;9322;50.932;5.318;2022-09-09T15:53:56;5.63;;;1.20;;
18391;SDS011;9322;50.932;5.318;2022-09-09T15:56:23;5.65;;;1.27;;
18391;SDS011;9322;50.932;5.318;2022-09-09T15:58:50;6.63;;;1.13;;
18391;SDS011;9322;50.932;5.318;2022-09-09T16:01:17;3.25;;;0.95;;
18391;SDS011;9322;50.932;5.318;2022-09-09T16:03:44;7.65;;;1.15;;
18391;SDS011;9322;50.932;5.318;2022-09-09T16:06:15;5.57;;;1.10;;
18391;SDS011;9322;50.932;5.318;2022-09-09T16:08:43;5.15;;;1.17;;
18391;SDS011;9322;50.932;5.318;2022-09-09T16:11:11;5.93;;;1.20;;
18391;SDS011;9322;50.932;5.318;2022-09-09T16:13:40;3.60;;;1.45;;
18391;SDS011;9322;50.932;5.318;2022-09-09T16:16:10;6.80;;;1.20;;
18391;SDS011;9322;50.932;5.318;2022-09-09T16:18:41;3.28;;;0.80;;
18391;SDS011;9322;50.932;5.318;2022-09-09T16:21:19;4.22;;;1.10;;
18391;SDS011;9322;50.932;5.318;2022-09-09T16:23:47;2.90;;;1.02;;
18391;SDS011;9322;50.932;5.318;2022-09-09T16:26:15;5.75;;;1.15;;
18391;SDS011;9322;50.932;5.318;2022-09-09T16:28:41;2.60;;;0.90;;
18391;SDS011;9322;50.932;5.318;2022-09-09T16:31:08;6.90;;;1.40;;
18391;SDS011;9322;50.932;5.318;2022-09-09T16:33:38;5.72;;;0.93;;
18391;SDS011;9322;50.932;5.318;2022-09-09T16:36:05;5.22;;;1.20;;
18391;SDS011;9322;50.932;5.318;2022-09-09T16:38:32;7.00;;;1.30;;
18391;SDS011;9322;50.932;5.318;2022-09-09T16:41:01;4.72;;;1.23;;
18391;SDS011;9322;50.932;5.318;2022-09-09T16:43:27;5.47;;;1.10;;
18391;SDS011;9322;50.932;5.318;2022-09-09T16:45:53;4.22;;;1.20;;
18391;SDS011;9322;50.932;5.318;2022-09-09T16:48:19;5.68;;;1.10;;
18391;SDS011;9322;50.932;5.318;2022-09-09T16:50:45;6.18;;;0.93;;
18391;SDS011;9322;50.932;5.318;2022-09-09T16:53:11;4.30;;;1.10;;
18391;SDS011;9322;50.932;5.318;2022-09-09T16:55:41;3.63;;;0.80;;
18391;SDS011;9322;50.932;5.318;2022-09-09T16:58:07;5.35;;;1.27;;
18391;SDS011;9322;50.932;5.318;2022-09-09T17:00:35;5.10;;;1.40;;
18391;SDS011;9322;50.932;5.318;2022-09-09T17:03:01;6.88;;;1.23;;
18391;SDS011;9322;50.932;5.318;2022-09-09T17:05:27;3.50;;;0.93;;
18391;SDS011;9322;50.932;5.318;2022-09-09T17:07:53;5.07;;;0.85;;
18391;SDS011;9322;50.932;5.318;2022-09-09T17:10:22;6.57;;;1.20;;
18391;SDS011;9322;50.932;5.318;2022-09-09T17:12:49;5.60;;;1.13;;
18391;SDS011;9322;50.932;5.318;2022-09-09T17:15:14;5.43;;;1.10;;
18391;SDS011;9322;50.932;5.318;2022-09-09T17:17:41;4.88;;;1.05;;
18391;SDS011;9322;50.932;5.318;2022-09-09T17:20:10;3.78;;;1.10;;
18391;SDS011;9322;50.932;5.318;2022-09-09T17:22:35;5.85;;;1.10;;
18391;SDS011;9322;50.932;5.318;2022-09-09T17:25:01;3.53;;;0.85;;
18391;SDS011;9322;50.932;5.318;2022-09-09T17:27:28;7.78;;;1.23;;
18391;SDS011;9322;50.932;5.318;2022-09-09T17:29:56;3.42;;;0.90;;
18391;SDS011;9322;50.932;5.318;2022-09-09T17:32:23;4.95;;;0.95;;
18391;SDS011;9322;50.932;5.318;2022-09-09T17:34:49;4.55;;;1.05;;
18391;SDS011;9322;50.932;5.318;2022-09-09T17:37:14;3.88;;;0.95;;
18391;SDS011;9322;50.932;5.318;2022-09-09T17:39:40;4.10;;;1.10;;
18391;SDS011;9322;50.932;5.318;2022-09-09T17:42:06;2.47;;;0.80;;
18391;SDS011;9322;50.932;5.318;2022-09-09T17:44:35;4.47;;;1.40;;
18391;SDS011;9322;50.932;5.318;2022-09-09T17:47:00;6.05;;;1.13;;
18391;SDS011;9322;50.932;5.318;2022-09-09T17:49:28;8.10;;;1.75;;
18391;SDS011;9322;50.932;5.318;2022-09-09T17:51:54;10.85;;;1.20;;